Terminal Aerodrome Forecast
Issued by NWS Los Angeles, CA

Home | Current Version | Previous Version | Text Only | Print | Product List | Glossary On
Versions: 1 2 3 4 5 6 7 8 9 10 11 12 13 14 15 16 17 18 19 20 21 22 23 24 25 26 27 28 29 30 31 32 33
000
FTUS46 KLOX 141300 AAA
TAFSMX
TAF AMD
KSMX 141306Z 1413/1512 VRB05KT 6SM BR FEW010 BKN150
     FM141500 VRB03KT P6SM VCSH SCT007 BKN150
     FM141700 29010KT P6SM VCSH SCT090 BKN150
     FM150300 VRB05KT P6SM VCSH BKN150
     FM150700 VRB05KT P6SM BKN010 BKN120=

USA.gov is the U.S. government's official web portal to all federal, state and local government web resources and services.